Atwater, California
Current Conditions -  °F | °C
As of 4:45 PM on Friday 24 Oct 2014 (Local Time) from KMER Reporting Station
Clear Clear  
Wind Chill: 84°   Ceiling: Unl
Heat Index: 84°   Visibility: 7mi
Dew Point: 46°   Wind: 8mph
Humidity: 27%   Direction: 180°S
Pressure: 29.85"   Gusts: NA
Location:  37.35°N, 120.6°W
Report Text: KMER 242345Z 18007KT 7SM SKC 29/08 A2985
Loading
Personal Weather Stations






























Interactive Weather Map
Tropical Storm Tracking
New forecast layout! Learn more

10-Day Weather Forecast

Advertisements
Track Severe Weather on mobile